sensor_id;sensor_type;location;lat;lon;timestamp;P1;durP1;ratioP1;P2;durP2;ratioP2
5674;SDS011;2860;54.284;10.158;2023-04-03T00:01:28;2.53;;;2.33;;
5674;SDS011;2860;54.284;10.158;2023-04-03T00:03:54;4.88;;;2.60;;
5674;SDS011;2860;54.284;10.158;2023-04-03T00:06:20;6.07;;;2.75;;
5674;SDS011;2860;54.284;10.158;2023-04-03T00:08:46;8.20;;;3.28;;
5674;SDS011;2860;54.284;10.158;2023-04-03T00:11:12;2.78;;;2.58;;
5674;SDS011;2860;54.284;10.158;2023-04-03T00:13:38;3.25;;;2.92;;
5674;SDS011;2860;54.284;10.158;2023-04-03T00:16:04;3.10;;;2.88;;
5674;SDS011;2860;54.284;10.158;2023-04-03T00:18:30;7.80;;;3.72;;
5674;SDS011;2860;54.284;10.158;2023-04-03T00:20:56;5.35;;;2.65;;
5674;SDS011;2860;54.284;10.158;2023-04-03T00:23:22;3.67;;;3.20;;
5674;SDS011;2860;54.284;10.158;2023-04-03T00:25:48;3.63;;;3.40;;
5674;SDS011;2860;54.284;10.158;2023-04-03T00:28:14;7.25;;;4.10;;
5674;SDS011;2860;54.284;10.158;2023-04-03T00:30:40;5.45;;;3.83;;
5674;SDS011;2860;54.284;10.158;2023-04-03T00:33:05;3.50;;;3.28;;
5674;SDS011;2860;54.284;10.158;2023-04-03T00:35:31;4.00;;;3.78;;
5674;SDS011;2860;54.284;10.158;2023-04-03T00:37:59;3.38;;;3.22;;
5674;SDS011;2860;54.284;10.158;2023-04-03T00:40:26;3.47;;;3.28;;
5674;SDS011;2860;54.284;10.158;2023-04-03T00:42:55;3.22;;;3.03;;
5674;SDS011;2860;54.284;10.158;2023-04-03T00:45:36;4.05;;;3.75;;
5674;SDS011;2860;54.284;10.158;2023-04-03T00:48:05;5.20;;;3.38;;
5674;SDS011;2860;54.284;10.158;2023-04-03T00:50:33;3.85;;;3.55;;
5674;SDS011;2860;54.284;10.158;2023-04-03T00:53:02;3.88;;;3.53;;
5674;SDS011;2860;54.284;10.158;2023-04-03T00:55:29;7.05;;;4.13;;
5674;SDS011;2860;54.284;10.158;2023-04-03T00:57:56;5.55;;;4.30;;
5674;SDS011;2860;54.284;10.158;2023-04-03T01:00:22;3.95;;;3.75;;
5674;SDS011;2860;54.284;10.158;2023-04-03T01:02:49;3.28;;;3.08;;
5674;SDS011;2860;54.284;10.158;2023-04-03T01:05:15;4.85;;;3.85;;
5674;SDS011;2860;54.284;10.158;2023-04-03T01:07:42;5.75;;;3.15;;
5674;SDS011;2860;54.284;10.158;2023-04-03T01:10:09;4.50;;;3.58;;
5674;SDS011;2860;54.284;10.158;2023-04-03T01:12:39;4.35;;;4.05;;
5674;SDS011;2860;54.284;10.158;2023-04-03T01:15:08;3.35;;;3.25;;
5674;SDS011;2860;54.284;10.158;2023-04-03T01:17:39;3.70;;;3.40;;
5674;SDS011;2860;54.284;10.158;2023-04-03T01:20:33;7.60;;;3.08;;
5674;SDS011;2860;54.284;10.158;2023-04-03T01:25:57;6.85;;;2.78;;
5674;SDS011;2860;54.284;10.158;2023-04-03T01:28:24;2.78;;;2.78;;
5674;SDS011;2860;54.284;10.158;2023-04-03T01:31:02;4.28;;;3.22;;
5674;SDS011;2860;54.284;10.158;2023-04-03T01:33:34;3.10;;;3.10;;
5674;SDS011;2860;54.284;10.158;2023-04-03T01:36:00;2.85;;;2.75;;
5674;SDS011;2860;54.284;10.158;2023-04-03T01:38:26;5.25;;;3.45;;
5674;SDS011;2860;54.284;10.158;2023-04-03T01:40:52;4.18;;;3.88;;
5674;SDS011;2860;54.284;10.158;2023-04-03T01:43:17;3.42;;;3.22;;
5674;SDS011;2860;54.284;10.158;2023-04-03T01:45:43;3.67;;;3.10;;
5674;SDS011;2860;54.284;10.158;2023-04-03T01:48:08;3.00;;;2.80;;
5674;SDS011;2860;54.284;10.158;2023-04-03T01:50:34;5.25;;;3.72;;
5674;SDS011;2860;54.284;10.158;2023-04-03T01:53:00;5.78;;;3.20;;
5674;SDS011;2860;54.284;10.158;2023-04-03T01:55:25;4.28;;;3.85;;
5674;SDS011;2860;54.284;10.158;2023-04-03T01:57:51;3.58;;;3.40;;
5674;SDS011;2860;54.284;10.158;2023-04-03T02:00:16;7.05;;;4.00;;
5674;SDS011;2860;54.284;10.158;2023-04-03T02:02:42;5.18;;;3.92;;
5674;SDS011;2860;54.284;10.158;2023-04-03T02:05:09;8.15;;;3.92;;
5674;SDS011;2860;54.284;10.158;2023-04-03T02:07:34;3.80;;;3.33;;
5674;SDS011;2860;54.284;10.158;2023-04-03T02:10:00;3.55;;;3.25;;
5674;SDS011;2860;54.284;10.158;2023-04-03T02:12:26;4.72;;;3.28;;
5674;SDS011;2860;54.284;10.158;2023-04-03T02:14:51;3.08;;;2.97;;
5674;SDS011;2860;54.284;10.158;2023-04-03T02:17:17;3.17;;;3.05;;
5674;SDS011;2860;54.284;10.158;2023-04-03T02:19:42;4.10;;;3.78;;
5674;SDS011;2860;54.284;10.158;2023-04-03T02:22:08;2.97;;;2.88;;
5674;SDS011;2860;54.284;10.158;2023-04-03T02:24:33;3.47;;;3.28;;
5674;SDS011;2860;54.284;10.158;2023-04-03T02:26:59;4.18;;;3.60;;
5674;SDS011;2860;54.284;10.158;2023-04-03T02:29:24;5.85;;;3.63;;
5674;SDS011;2860;54.284;10.158;2023-04-03T02:31:50;3.55;;;3.30;;
5674;SDS011;2860;54.284;10.158;2023-04-03T02:34:16;3.15;;;2.80;;
5674;SDS011;2860;54.284;10.158;2023-04-03T02:36:42;3.67;;;3.55;;
5674;SDS011;2860;54.284;10.158;2023-04-03T02:39:08;4.22;;;3.20;;
5674;SDS011;2860;54.284;10.158;2023-04-03T02:41:34;10.80;;;3.22;;
5674;SDS011;2860;54.284;10.158;2023-04-03T02:44:03;3.75;;;3.50;;
5674;SDS011;2860;54.284;10.158;2023-04-03T02:46:30;3.33;;;3.08;;
5674;SDS011;2860;54.284;10.158;2023-04-03T02:48:56;3.50;;;3.30;;
5674;SDS011;2860;54.284;10.158;2023-04-03T02:51:21;3.78;;;3.58;;
5674;SDS011;2860;54.284;10.158;2023-04-03T02:53:47;6.25;;;4.25;;
5674;SDS011;2860;54.284;10.158;2023-04-03T02:56:13;4.35;;;3.78;;
5674;SDS011;2860;54.284;10.158;2023-04-03T02:58:39;3.45;;;3.25;;
5674;SDS011;2860;54.284;10.158;2023-04-03T03:01:05;3.20;;;3.10;;
5674;SDS011;2860;54.284;10.158;2023-04-03T03:03:30;4.15;;;3.83;;
5674;SDS011;2860;54.284;10.158;2023-04-03T03:06:05;3.75;;;3.58;;
5674;SDS011;2860;54.284;10.158;2023-04-03T03:08:33;4.20;;;3.80;;
5674;SDS011;2860;54.284;10.158;2023-04-03T03:10:59;5.22;;;4.20;;
5674;SDS011;2860;54.284;10.158;2023-04-03T03:13:25;4.72;;;4.05;;
5674;SDS011;2860;54.284;10.158;2023-04-03T03:15:51;3.75;;;3.42;;
5674;SDS011;2860;54.284;10.158;2023-04-03T03:18:16;10.07;;;4.80;;
5674;SDS011;2860;54.284;10.158;2023-04-03T03:20:42;4.45;;;3.70;;
5674;SDS011;2860;54.284;10.158;2023-04-03T03:23:08;7.32;;;4.75;;
5674;SDS011;2860;54.284;10.158;2023-04-03T03:25:37;6.28;;;5.32;;
5674;SDS011;2860;54.284;10.158;2023-04-03T03:28:04;4.68;;;3.80;;
5674;SDS011;2860;54.284;10.158;2023-04-03T03:30:30;5.00;;;4.60;;
5674;SDS011;2860;54.284;10.158;2023-04-03T03:32:55;5.40;;;4.63;;
5674;SDS011;2860;54.284;10.158;2023-04-03T03:35:21;6.32;;;4.97;;
5674;SDS011;2860;54.284;10.158;2023-04-03T03:37:46;5.32;;;3.95;;
5674;SDS011;2860;54.284;10.158;2023-04-03T03:40:12;6.05;;;4.57;;
5674;SDS011;2860;54.284;10.158;2023-04-03T03:42:38;5.40;;;4.95;;
5674;SDS011;2860;54.284;10.158;2023-04-03T03:45:03;6.40;;;3.97;;
5674;SDS011;2860;54.284;10.158;2023-04-03T03:47:29;5.55;;;4.70;;
5674;SDS011;2860;54.284;10.158;2023-04-03T03:49:55;4.80;;;4.53;;
5674;SDS011;2860;54.284;10.158;2023-04-03T03:52:21;9.60;;;4.95;;
5674;SDS011;2860;54.284;10.158;2023-04-03T03:54:46;6.95;;;4.25;;
5674;SDS011;2860;54.284;10.158;2023-04-03T03:57:12;9.77;;;4.70;;
5674;SDS011;2860;54.284;10.158;2023-04-03T03:59:37;3.92;;;3.72;;
5674;SDS011;2860;54.284;10.158;2023-04-03T04:02:05;5.32;;;4.78;;
5674;SDS011;2860;54.284;10.158;2023-04-03T04:04:30;4.70;;;4.45;;
5674;SDS011;2860;54.284;10.158;2023-04-03T04:06:56;6.32;;;4.38;;
5674;SDS011;2860;54.284;10.158;2023-04-03T04:09:21;5.22;;;4.70;;
5674;SDS011;2860;54.284;10.158;2023-04-03T04:11:47;4.65;;;4.18;;
5674;SDS011;2860;54.284;10.158;2023-04-03T04:14:12;4.70;;;4.35;;
5674;SDS011;2860;54.284;10.158;2023-04-03T04:16:38;9.75;;;4.30;;
5674;SDS011;2860;54.284;10.158;2023-04-03T04:19:04;5.60;;;4.35;;
5674;SDS011;2860;54.284;10.158;2023-04-03T04:21:29;4.93;;;4.63;;
5674;SDS011;2860;54.284;10.158;2023-04-03T04:23:55;5.00;;;4.80;;
5674;SDS011;2860;54.284;10.158;2023-04-03T04:26:20;8.93;;;5.20;;
5674;SDS011;2860;54.284;10.158;2023-04-03T04:28:46;5.07;;;4.65;;
5674;SDS011;2860;54.284;10.158;2023-04-03T04:31:11;15.00;;;9.23;;
5674;SDS011;2860;54.284;10.158;2023-04-03T04:33:37;6.75;;;6.10;;
5674;SDS011;2860;54.284;10.158;2023-04-03T04:36:02;6.57;;;5.88;;
5674;SDS011;2860;54.284;10.158;2023-04-03T04:38:28;10.43;;;5.68;;
5674;SDS011;2860;54.284;10.158;2023-04-03T04:40:54;7.03;;;5.80;;
5674;SDS011;2860;54.284;10.158;2023-04-03T04:43:19;6.38;;;5.75;;
5674;SDS011;2860;54.284;10.158;2023-04-03T04:45:45;5.65;;;5.15;;
5674;SDS011;2860;54.284;10.158;2023-04-03T04:48:10;12.48;;;6.15;;
5674;SDS011;2860;54.284;10.158;2023-04-03T04:50:36;7.03;;;6.50;;
5674;SDS011;2860;54.284;10.158;2023-04-03T04:53:01;9.98;;;5.85;;
5674;SDS011;2860;54.284;10.158;2023-04-03T04:55:27;8.43;;;6.60;;
5674;SDS011;2860;54.284;10.158;2023-04-03T04:57:52;6.20;;;5.70;;
5674;SDS011;2860;54.284;10.158;2023-04-03T05:00:18;6.35;;;5.65;;
5674;SDS011;2860;54.284;10.158;2023-04-03T05:02:44;7.65;;;6.03;;
5674;SDS011;2860;54.284;10.158;2023-04-03T05:05:09;10.60;;;6.10;;
5674;SDS011;2860;54.284;10.158;2023-04-03T05:07:35;9.75;;;6.07;;
5674;SDS011;2860;54.284;10.158;2023-04-03T05:10:00;9.25;;;6.53;;
5674;SDS011;2860;54.284;10.158;2023-04-03T05:12:27;6.28;;;5.72;;
5674;SDS011;2860;54.284;10.158;2023-04-03T05:14:53;6.93;;;6.13;;
5674;SDS011;2860;54.284;10.158;2023-04-03T05:17:18;9.32;;;5.70;;
5674;SDS011;2860;54.284;10.158;2023-04-03T05:19:44;7.10;;;6.18;;
5674;SDS011;2860;54.284;10.158;2023-04-03T05:22:10;6.40;;;5.85;;
5674;SDS011;2860;54.284;10.158;2023-04-03T05:24:35;16.20;;;6.93;;
5674;SDS011;2860;54.284;10.158;2023-04-03T05:27:01;10.85;;;6.63;;
5674;SDS011;2860;54.284;10.158;2023-04-03T05:29:26;6.93;;;6.30;;
5674;SDS011;2860;54.284;10.158;2023-04-03T05:31:51;10.50;;;7.25;;
5674;SDS011;2860;54.284;10.158;2023-04-03T05:34:17;13.07;;;7.10;;
5674;SDS011;2860;54.284;10.158;2023-04-03T05:36:43;10.00;;;6.50;;
5674;SDS011;2860;54.284;10.158;2023-04-03T05:39:09;6.85;;;6.18;;
5674;SDS011;2860;54.284;10.158;2023-04-03T05:41:34;6.35;;;5.72;;
5674;SDS011;2860;54.284;10.158;2023-04-03T05:44:00;7.97;;;7.05;;
5674;SDS011;2860;54.284;10.158;2023-04-03T05:46:25;7.00;;;6.32;;
5674;SDS011;2860;54.284;10.158;2023-04-03T05:48:51;6.18;;;5.68;;
5674;SDS011;2860;54.284;10.158;2023-04-03T05:51:18;23.10;;;6.13;;
5674;SDS011;2860;54.284;10.158;2023-04-03T05:53:46;7.57;;;5.78;;
5674;SDS011;2860;54.284;10.158;2023-04-03T05:56:12;6.18;;;5.50;;
5674;SDS011;2860;54.284;10.158;2023-04-03T05:58:38;4.90;;;4.57;;
5674;SDS011;2860;54.284;10.158;2023-04-03T06:01:04;5.25;;;4.85;;
5674;SDS011;2860;54.284;10.158;2023-04-03T06:03:30;5.00;;;4.60;;
5674;SDS011;2860;54.284;10.158;2023-04-03T06:05:56;5.25;;;4.70;;
5674;SDS011;2860;54.284;10.158;2023-04-03T06:08:21;5.20;;;4.95;;
5674;SDS011;2860;54.284;10.158;2023-04-03T06:10:48;11.02;;;5.25;;
5674;SDS011;2860;54.284;10.158;2023-04-03T06:13:15;7.03;;;5.07;;
5674;SDS011;2860;54.284;10.158;2023-04-03T06:15:40;8.38;;;5.60;;
5674;SDS011;2860;54.284;10.158;2023-04-03T06:18:06;6.07;;;5.57;;
5674;SDS011;2860;54.284;10.158;2023-04-03T06:20:32;5.97;;;4.88;;
5674;SDS011;2860;54.284;10.158;2023-04-03T06:22:57;9.85;;;6.57;;
5674;SDS011;2860;54.284;10.158;2023-04-03T06:25:23;7.82;;;6.10;;
5674;SDS011;2860;54.284;10.158;2023-04-03T06:27:49;9.02;;;6.15;;
5674;SDS011;2860;54.284;10.158;2023-04-03T06:30:14;6.97;;;6.38;;
5674;SDS011;2860;54.284;10.158;2023-04-03T06:32:40;7.03;;;6.53;;
5674;SDS011;2860;54.284;10.158;2023-04-03T06:35:06;7.20;;;6.60;;
5674;SDS011;2860;54.284;10.158;2023-04-03T06:37:33;12.13;;;7.55;;
5674;SDS011;2860;54.284;10.158;2023-04-03T06:39:58;7.95;;;6.88;;
5674;SDS011;2860;54.284;10.158;2023-04-03T06:42:25;8.52;;;7.72;;
5674;SDS011;2860;54.284;10.158;2023-04-03T06:44:50;10.73;;;7.85;;
5674;SDS011;2860;54.284;10.158;2023-04-03T06:47:16;7.97;;;7.25;;
5674;SDS011;2860;54.284;10.158;2023-04-03T06:49:42;10.00;;;7.30;;
5674;SDS011;2860;54.284;10.158;2023-04-03T06:52:08;9.82;;;5.93;;
5674;SDS011;2860;54.284;10.158;2023-04-03T06:54:35;10.57;;;4.65;;
5674;SDS011;2860;54.284;10.158;2023-04-03T06:57:00;5.45;;;4.20;;
5674;SDS011;2860;54.284;10.158;2023-04-03T06:59:26;5.95;;;3.80;;
5674;SDS011;2860;54.284;10.158;2023-04-03T07:01:52;4.00;;;3.30;;
5674;SDS011;2860;54.284;10.158;2023-04-03T07:04:18;15.52;;;2.67;;
5674;SDS011;2860;54.284;10.158;2023-04-03T07:06:45;3.80;;;3.17;;
5674;SDS011;2860;54.284;10.158;2023-04-03T07:09:11;6.45;;;2.60;;
5674;SDS011;2860;54.284;10.158;2023-04-03T07:11:37;5.55;;;3.08;;
5674;SDS011;2860;54.284;10.158;2023-04-03T07:14:03;3.95;;;2.72;;
5674;SDS011;2860;54.284;10.158;2023-04-03T07:16:28;5.72;;;2.38;;
5674;SDS011;2860;54.284;10.158;2023-04-03T07:18:55;17.73;;;2.75;;
5674;SDS011;2860;54.284;10.158;2023-04-03T07:21:22;8.43;;;3.00;;
5674;SDS011;2860;54.284;10.158;2023-04-03T07:23:47;2.47;;;2.38;;
5674;SDS011;2860;54.284;10.158;2023-04-03T07:26:13;7.30;;;2.72;;
5674;SDS011;2860;54.284;10.158;2023-04-03T07:28:38;6.93;;;3.15;;
5674;SDS011;2860;54.284;10.158;2023-04-03T07:31:06;8.07;;;2.42;;
5674;SDS011;2860;54.284;10.158;2023-04-03T07:33:36;3.03;;;2.38;;
5674;SDS011;2860;54.284;10.158;2023-04-03T07:36:02;5.70;;;2.42;;
5674;SDS011;2860;54.284;10.158;2023-04-03T07:38:29;6.60;;;1.92;;
5674;SDS011;2860;54.284;10.158;2023-04-03T07:40:55;3.00;;;1.83;;
5674;SDS011;2860;54.284;10.158;2023-04-03T07:43:21;3.72;;;1.48;;
5674;SDS011;2860;54.284;10.158;2023-04-03T07:45:47;3.72;;;1.25;;
5674;SDS011;2860;54.284;10.158;2023-04-03T07:48:17;1.98;;;1.30;;
5674;SDS011;2860;54.284;10.158;2023-04-03T07:50:44;1.92;;;0.85;;
5674;SDS011;2860;54.284;10.158;2023-04-03T07:53:10;1.05;;;1.05;;
5674;SDS011;2860;54.284;10.158;2023-04-03T07:55:36;3.55;;;1.00;;
5674;SDS011;2860;54.284;10.158;2023-04-03T07:58:08;1.30;;;0.93;;
5674;SDS011;2860;54.284;10.158;2023-04-03T08:00:43;1.63;;;0.93;;
5674;SDS011;2860;54.284;10.158;2023-04-03T08:03:10;1.75;;;0.90;;
5674;SDS011;2860;54.284;10.158;2023-04-03T08:05:42;1.75;;;0.85;;
5674;SDS011;2860;54.284;10.158;2023-04-03T08:08:10;2.10;;;0.85;;
5674;SDS011;2860;54.284;10.158;2023-04-03T08:10:37;2.90;;;0.60;;
5674;SDS011;2860;54.284;10.158;2023-04-03T08:13:03;0.73;;;0.73;;
5674;SDS011;2860;54.284;10.158;2023-04-03T08:15:29;1.33;;;0.65;;
5674;SDS011;2860;54.284;10.158;2023-04-03T08:17:55;1.50;;;0.90;;
5674;SDS011;2860;54.284;10.158;2023-04-03T08:20:21;1.73;;;0.80;;
5674;SDS011;2860;54.284;10.158;2023-04-03T08:22:46;0.60;;;0.60;;
5674;SDS011;2860;54.284;10.158;2023-04-03T08:25:12;0.50;;;0.50;;
5674;SDS011;2860;54.284;10.158;2023-04-03T08:27:38;3.10;;;0.70;;
5674;SDS011;2860;54.284;10.158;2023-04-03T08:30:04;1.83;;;0.80;;
5674;SDS011;2860;54.284;10.158;2023-04-03T08:32:32;1.45;;;0.70;;
5674;SDS011;2860;54.284;10.158;2023-04-03T08:34:58;0.70;;;0.70;;
5674;SDS011;2860;54.284;10.158;2023-04-03T08:37:24;0.90;;;0.90;;
5674;SDS011;2860;54.284;10.158;2023-04-03T08:39:49;1.60;;;0.77;;
5674;SDS011;2860;54.284;10.158;2023-04-03T08:42:32;1.75;;;1.00;;
5674;SDS011;2860;54.284;10.158;2023-04-03T08:47:53;0.95;;;0.95;;
5674;SDS011;2860;54.284;10.158;2023-04-03T08:50:28;2.17;;;0.82;;
5674;SDS011;2860;54.284;10.158;2023-04-03T08:53:12;3.38;;;0.90;;
5674;SDS011;2860;54.284;10.158;2023-04-03T08:55:44;1.80;;;1.10;;
5674;SDS011;2860;54.284;10.158;2023-04-03T08:58:16;3.55;;;0.90;;
5674;SDS011;2860;54.284;10.158;2023-04-03T09:00:51;0.90;;;0.68;;
5674;SDS011;2860;54.284;10.158;2023-04-03T09:03:28;1.50;;;1.17;;
5674;SDS011;2860;54.284;10.158;2023-04-03T09:06:03;1.30;;;0.70;;
5674;SDS011;2860;54.284;10.158;2023-04-03T09:14:23;1.00;;;0.77;;
5674;SDS011;2860;54.284;10.158;2023-04-03T09:17:01;1.65;;;0.80;;
5674;SDS011;2860;54.284;10.158;2023-04-03T09:19:41;1.88;;;1.05;;
5674;SDS011;2860;54.284;10.158;2023-04-03T09:22:32;0.77;;;0.63;;
5674;SDS011;2860;54.284;10.158;2023-04-03T09:25:10;1.85;;;1.00;;
5674;SDS011;2860;54.284;10.158;2023-04-03T09:27:54;1.30;;;0.60;;
5674;SDS011;2860;54.284;10.158;2023-04-03T09:30:21;2.22;;;2.03;;
5674;SDS011;2860;54.284;10.158;2023-04-03T09:32:49;3.15;;;0.68;;
5674;SDS011;2860;54.284;10.158;2023-04-03T09:35:19;1.13;;;1.02;;
5674;SDS011;2860;54.284;10.158;2023-04-03T09:37:46;3.63;;;1.10;;
5674;SDS011;2860;54.284;10.158;2023-04-03T09:42:59;0.82;;;0.70;;
5674;SDS011;2860;54.284;10.158;2023-04-03T09:53:26;1.15;;;0.77;;
5674;SDS011;2860;54.284;10.158;2023-04-03T09:55:52;1.75;;;0.70;;
5674;SDS011;2860;54.284;10.158;2023-04-03T09:58:25;1.50;;;0.80;;
5674;SDS011;2860;54.284;10.158;2023-04-03T10:00:58;1.55;;;0.93;;
5674;SDS011;2860;54.284;10.158;2023-04-03T10:03:33;1.58;;;1.25;;
5674;SDS011;2860;54.284;10.158;2023-04-03T10:06:01;2.22;;;0.98;;
5674;SDS011;2860;54.284;10.158;2023-04-03T10:11:10;1.40;;;0.70;;
5674;SDS011;2860;54.284;10.158;2023-04-03T10:13:52;2.90;;;1.10;;
5674;SDS011;2860;54.284;10.158;2023-04-03T10:16:22;2.83;;;0.73;;
5674;SDS011;2860;54.284;10.158;2023-04-03T10:19:26;0.95;;;0.88;;
5674;SDS011;2860;54.284;10.158;2023-04-03T10:25:12;4.07;;;1.02;;
5674;SDS011;2860;54.284;10.158;2023-04-03T10:33:20;0.98;;;0.70;;
5674;SDS011;2860;54.284;10.158;2023-04-03T10:36:07;2.67;;;0.70;;
5674;SDS011;2860;54.284;10.158;2023-04-03T10:44:28;1.10;;;0.68;;
5674;SDS011;2860;54.284;10.158;2023-04-03T10:47:15;2.95;;;0.70;;
5674;SDS011;2860;54.284;10.158;2023-04-03T10:55:49;2.38;;;0.82;;
5674;SDS011;2860;54.284;10.158;2023-04-03T10:58:29;1.25;;;0.70;;
5674;SDS011;2860;54.284;10.158;2023-04-03T11:01:18;3.38;;;1.58;;
5674;SDS011;2860;54.284;10.158;2023-04-03T11:03:52;2.30;;;0.90;;
5674;SDS011;2860;54.284;10.158;2023-04-03T11:06:21;2.15;;;1.00;;
5674;SDS011;2860;54.284;10.158;2023-04-03T11:08:57;1.13;;;0.80;;
5674;SDS011;2860;54.284;10.158;2023-04-03T11:11:40;0.80;;;0.80;;
5674;SDS011;2860;54.284;10.158;2023-04-03T11:14:13;3.00;;;0.65;;
5674;SDS011;2860;54.284;10.158;2023-04-03T11:16:47;1.15;;;0.70;;
5674;SDS011;2860;54.284;10.158;2023-04-03T11:19:20;1.08;;;0.63;;
5674;SDS011;2860;54.284;10.158;2023-04-03T11:22:10;0.65;;;0.60;;
5674;SDS011;2860;54.284;10.158;2023-04-03T11:24:39;7.13;;;1.05;;
5674;SDS011;2860;54.284;10.158;2023-04-03T11:27:11;0.65;;;0.65;;
5674;SDS011;2860;54.284;10.158;2023-04-03T11:29:43;1.25;;;1.20;;
5674;SDS011;2860;54.284;10.158;2023-04-03T11:32:29;1.08;;;0.60;;
5674;SDS011;2860;54.284;10.158;2023-04-03T11:35:01;1.08;;;0.60;;
5674;SDS011;2860;54.284;10.158;2023-04-03T11:37:34;3.97;;;1.10;;
5674;SDS011;2860;54.284;10.158;2023-04-03T11:42:41;1.75;;;0.80;;
5674;SDS011;2860;54.284;10.158;2023-04-03T11:47:59;0.98;;;0.93;;
5674;SDS011;2860;54.284;10.158;2023-04-03T11:50:51;2.33;;;1.15;;
5674;SDS011;2860;54.284;10.158;2023-04-03T11:56:03;1.25;;;0.75;;
5674;SDS011;2860;54.284;10.158;2023-04-03T12:01:53;1.02;;;0.93;;
5674;SDS011;2860;54.284;10.158;2023-04-03T12:04:22;1.48;;;0.90;;
5674;SDS011;2860;54.284;10.158;2023-04-03T12:06:52;0.70;;;0.70;;
5674;SDS011;2860;54.284;10.158;2023-04-03T12:09:25;1.65;;;0.98;;
5674;SDS011;2860;54.284;10.158;2023-04-03T12:12:28;3.40;;;1.10;;
5674;SDS011;2860;54.284;10.158;2023-04-03T12:15:18;0.90;;;0.90;;
5674;SDS011;2860;54.284;10.158;2023-04-03T12:17:45;1.02;;;0.93;;
5674;SDS011;2860;54.284;10.158;2023-04-03T12:23:32;0.82;;;0.82;;
5674;SDS011;2860;54.284;10.158;2023-04-03T12:26:03;1.60;;;1.27;;
5674;SDS011;2860;54.284;10.158;2023-04-03T12:28:30;1.60;;;0.95;;
5674;SDS011;2860;54.284;10.158;2023-04-03T12:31:02;1.27;;;0.55;;
5674;SDS011;2860;54.284;10.158;2023-04-03T12:33:34;2.15;;;0.70;;
5674;SDS011;2860;54.284;10.158;2023-04-03T12:36:11;0.70;;;0.70;;
5674;SDS011;2860;54.284;10.158;2023-04-03T12:41:36;2.22;;;0.93;;
5674;SDS011;2860;54.284;10.158;2023-04-03T12:44:33;1.17;;;0.80;;
5674;SDS011;2860;54.284;10.158;2023-04-03T12:46:58;2.35;;;0.70;;
5674;SDS011;2860;54.284;10.158;2023-04-03T12:49:41;2.72;;;0.68;;
5674;SDS011;2860;54.284;10.158;2023-04-03T12:52:29;1.35;;;0.80;;
5674;SDS011;2860;54.284;10.158;2023-04-03T12:55:00;1.75;;;1.00;;
5674;SDS011;2860;54.284;10.158;2023-04-03T12:57:29;1.02;;;0.60;;
5674;SDS011;2860;54.284;10.158;2023-04-03T12:59:57;1.85;;;0.90;;
5674;SDS011;2860;54.284;10.158;2023-04-03T13:04:52;1.00;;;1.00;;
5674;SDS011;2860;54.284;10.158;2023-04-03T13:07:26;1.95;;;1.27;;
5674;SDS011;2860;54.284;10.158;2023-04-03T13:12:32;3.40;;;0.70;;
5674;SDS011;2860;54.284;10.158;2023-04-03T13:15:00;1.95;;;1.13;;
5674;SDS011;2860;54.284;10.158;2023-04-03T13:17:38;0.90;;;0.90;;
5674;SDS011;2860;54.284;10.158;2023-04-03T13:20:26;1.08;;;1.00;;
5674;SDS011;2860;54.284;10.158;2023-04-03T13:23:12;0.75;;;0.75;;
5674;SDS011;2860;54.284;10.158;2023-04-03T13:25:43;0.90;;;0.88;;
5674;SDS011;2860;54.284;10.158;2023-04-03T13:28:11;1.60;;;1.50;;
5674;SDS011;2860;54.284;10.158;2023-04-03T13:30:41;1.63;;;0.98;;
5674;SDS011;2860;54.284;10.158;2023-04-03T13:33:21;1.48;;;1.00;;
5674;SDS011;2860;54.284;10.158;2023-04-03T13:35:57;1.70;;;1.40;;
5674;SDS011;2860;54.284;10.158;2023-04-03T13:38:27;1.17;;;1.08;;
5674;SDS011;2860;54.284;10.158;2023-04-03T13:40:58;0.85;;;0.85;;
5674;SDS011;2860;54.284;10.158;2023-04-03T13:43:28;1.77;;;1.00;;
5674;SDS011;2860;54.284;10.158;2023-04-03T13:48:41;1.50;;;0.90;;
5674;SDS011;2860;54.284;10.158;2023-04-03T13:53:47;2.65;;;1.05;;
5674;SDS011;2860;54.284;10.158;2023-04-03T13:56:36;1.40;;;0.90;;
5674;SDS011;2860;54.284;10.158;2023-04-03T14:01:38;1.00;;;1.00;;
5674;SDS011;2860;54.284;10.158;2023-04-03T14:06:48;2.95;;;1.00;;
5674;SDS011;2860;54.284;10.158;2023-04-03T14:09:15;3.03;;;1.50;;
5674;SDS011;2860;54.284;10.158;2023-04-03T14:11:42;3.22;;;1.10;;
5674;SDS011;2860;54.284;10.158;2023-04-03T14:14:21;1.38;;;1.27;;
5674;SDS011;2860;54.284;10.158;2023-04-03T14:16:51;5.25;;;1.35;;
5674;SDS011;2860;54.284;10.158;2023-04-03T14:19:24;1.40;;;1.30;;
5674;SDS011;2860;54.284;10.158;2023-04-03T14:21:53;1.17;;;1.10;;
5674;SDS011;2860;54.284;10.158;2023-04-03T14:24:19;2.70;;;1.02;;
5674;SDS011;2860;54.284;10.158;2023-04-03T14:26:45;1.70;;;1.35;;
5674;SDS011;2860;54.284;10.158;2023-04-03T14:29:12;2.10;;;1.15;;
5674;SDS011;2860;54.284;10.158;2023-04-03T14:31:39;2.63;;;1.02;;
5674;SDS011;2860;54.284;10.158;2023-04-03T14:34:05;1.40;;;1.10;;
5674;SDS011;2860;54.284;10.158;2023-04-03T14:36:34;3.10;;;1.30;;
5674;SDS011;2860;54.284;10.158;2023-04-03T14:39:00;1.67;;;1.20;;
5674;SDS011;2860;54.284;10.158;2023-04-03T14:41:27;1.25;;;1.20;;
5674;SDS011;2860;54.284;10.158;2023-04-03T14:43:52;1.40;;;1.27;;
5674;SDS011;2860;54.284;10.158;2023-04-03T14:46:22;3.03;;;1.10;;
5674;SDS011;2860;54.284;10.158;2023-04-03T14:48:52;2.03;;;1.30;;
5674;SDS011;2860;54.284;10.158;2023-04-03T14:51:17;1.25;;;1.00;;
5674;SDS011;2860;54.284;10.158;2023-04-03T14:53:43;1.00;;;1.00;;
5674;SDS011;2860;54.284;10.158;2023-04-03T14:58:42;2.28;;;1.10;;
5674;SDS011;2860;54.284;10.158;2023-04-03T15:01:11;2.20;;;1.33;;
5674;SDS011;2860;54.284;10.158;2023-04-03T15:03:38;3.25;;;1.05;;
5674;SDS011;2860;54.284;10.158;2023-04-03T15:06:04;2.70;;;1.02;;
5674;SDS011;2860;54.284;10.158;2023-04-03T15:08:30;1.27;;;1.27;;
5674;SDS011;2860;54.284;10.158;2023-04-03T15:10:55;2.45;;;1.48;;
5674;SDS011;2860;54.284;10.158;2023-04-03T15:13:22;3.55;;;1.15;;
5674;SDS011;2860;54.284;10.158;2023-04-03T15:15:48;0.88;;;0.88;;
5674;SDS011;2860;54.284;10.158;2023-04-03T15:18:16;1.52;;;1.10;;
5674;SDS011;2860;54.284;10.158;2023-04-03T15:20:44;2.80;;;1.20;;
5674;SDS011;2860;54.284;10.158;2023-04-03T15:23:11;1.00;;;1.00;;
5674;SDS011;2860;54.284;10.158;2023-04-03T15:25:37;1.70;;;1.60;;
5674;SDS011;2860;54.284;10.158;2023-04-03T15:28:04;1.23;;;1.13;;
5674;SDS011;2860;54.284;10.158;2023-04-03T15:30:30;4.63;;;1.13;;
5674;SDS011;2860;54.284;10.158;2023-04-03T15:32:56;1.83;;;1.10;;
5674;SDS011;2860;54.284;10.158;2023-04-03T15:35:21;1.15;;;1.15;;
5674;SDS011;2860;54.284;10.158;2023-04-03T15:37:47;1.48;;;1.38;;
5674;SDS011;2860;54.284;10.158;2023-04-03T15:40:13;1.35;;;1.25;;
5674;SDS011;2860;54.284;10.158;2023-04-03T15:42:44;1.42;;;1.35;;
5674;SDS011;2860;54.284;10.158;2023-04-03T15:45:10;1.58;;;1.55;;
5674;SDS011;2860;54.284;10.158;2023-04-03T15:47:35;1.45;;;1.45;;
5674;SDS011;2860;54.284;10.158;2023-04-03T15:50:01;2.88;;;1.63;;
5674;SDS011;2860;54.284;10.158;2023-04-03T15:52:27;4.88;;;1.15;;
5674;SDS011;2860;54.284;10.158;2023-04-03T15:54:52;2.60;;;1.30;;
5674;SDS011;2860;54.284;10.158;2023-04-03T15:57:18;1.65;;;1.55;;
5674;SDS011;2860;54.284;10.158;2023-04-03T15:59:43;1.77;;;1.67;;
5674;SDS011;2860;54.284;10.158;2023-04-03T16:02:09;4.88;;;1.30;;
5674;SDS011;2860;54.284;10.158;2023-04-03T16:04:37;1.88;;;1.02;;
5674;SDS011;2860;54.284;10.158;2023-04-03T16:07:03;1.73;;;1.67;;
5674;SDS011;2860;54.284;10.158;2023-04-03T16:09:29;1.85;;;1.75;;
5674;SDS011;2860;54.284;10.158;2023-04-03T16:11:55;1.08;;;1.08;;
5674;SDS011;2860;54.284;10.158;2023-04-03T16:14:21;5.30;;;1.00;;
5674;SDS011;2860;54.284;10.158;2023-04-03T16:16:46;3.53;;;1.50;;
5674;SDS011;2860;54.284;10.158;2023-04-03T16:19:12;3.50;;;1.92;;
5674;SDS011;2860;54.284;10.158;2023-04-03T16:21:38;2.88;;;1.77;;
5674;SDS011;2860;54.284;10.158;2023-04-03T16:24:03;2.15;;;1.80;;
5674;SDS011;2860;54.284;10.158;2023-04-03T16:26:29;5.10;;;1.80;;
5674;SDS011;2860;54.284;10.158;2023-04-03T16:28:56;2.10;;;1.42;;
5674;SDS011;2860;54.284;10.158;2023-04-03T16:31:22;1.77;;;1.65;;